Plymouth Kingdom, Vermont
Current Conditions -  °F | °C
As of 1:15 PM on Friday 24 Oct 2014 (Local Time) from KRUT Reporting Station
Overcast Overcast  
Wind Chill: 37°   Ceiling: 800
Heat Index: 43°   Visibility: 9mi
Dew Point: 39°   Wind: 10mph
Humidity: 87%   Direction: 310°NW
Pressure: 29.8"   Gusts: 18mph
Location:  43.5113°N, 72.7233°W
Report Text: KRUT 241715Z 31009G16KT 9SM OVC008 06/04 A2980 RMK AO1
Loading
Personal Weather Stations






























Interactive Weather Map
Tropical Storm Tracking
New forecast layout! Learn more

10-Day Weather Forecast

Advertisements
Track Severe Weather on mobile